sensor_id;sensor_type;location;lat;lon;timestamp;pressure;altitude;pressure_sealevel;temperature;humidity
55994;BME280;67425;52.126;20.638;2023-05-23T00:01:11;57194.47;;;-144.78;44.46
55994;BME280;67425;52.126;20.638;2023-05-23T00:03:39;57188.22;;;-144.78;44.26
55994;BME280;67425;52.126;20.638;2023-05-23T00:06:05;57204.84;;;-144.78;44.05
55994;BME280;67425;52.126;20.638;2023-05-23T00:08:31;57192.38;;;-144.78;43.99
55994;BME280;67425;52.126;20.638;2023-05-23T00:10:56;57188.22;;;-144.78;44.07
55994;BME280;67425;52.126;20.638;2023-05-23T00:13:22;57194.47;;;-144.78;43.81
55994;BME280;67425;52.126;20.638;2023-05-23T00:15:47;57202.75;;;-144.78;43.83
55994;BME280;67425;52.126;20.638;2023-05-23T00:18:12;57190.31;;;-144.78;44.61
55994;BME280;67425;52.126;20.638;2023-05-23T00:20:40;57211.06;;;-144.78;44.02
55994;BME280;67425;52.126;20.638;2023-05-23T00:23:11;57198.59;;;-144.78;44.60
55994;BME280;67425;52.126;20.638;2023-05-23T00:25:43;57198.59;;;-144.78;44.12
55994;BME280;67425;52.126;20.638;2023-05-23T00:28:13;57204.84;;;-144.78;44.70
55994;BME280;67425;52.126;20.638;2023-05-23T00:30:38;57190.31;;;-144.78;44.24
55994;BME280;67425;52.126;20.638;2023-05-23T00:33:03;57188.22;;;-144.78;44.05
55994;BME280;67425;52.126;20.638;2023-05-23T00:35:29;57215.22;;;-144.78;44.80
55994;BME280;67425;52.126;20.638;2023-05-23T00:37:54;57221.44;;;-144.78;44.38
55994;BME280;67425;52.126;20.638;2023-05-23T00:40:20;57204.84;;;-144.78;44.57
55994;BME280;67425;52.126;20.638;2023-05-23T00:42:46;57202.75;;;-144.78;44.48
55994;BME280;67425;52.126;20.638;2023-05-23T00:45:12;57190.31;;;-144.78;44.50
55994;BME280;67425;52.126;20.638;2023-05-23T00:47:41;57213.16;;;-144.78;43.94
55994;BME280;67425;52.126;20.638;2023-05-23T00:50:07;57217.31;;;-144.78;44.37
55994;BME280;67425;52.126;20.638;2023-05-23T00:52:34;57219.38;;;-144.78;45.24
55994;BME280;67425;52.126;20.638;2023-05-23T00:54:59;57229.75;;;-144.78;44.86
55994;BME280;67425;52.126;20.638;2023-05-23T00:57:24;57225.59;;;-144.78;44.83
55994;BME280;67425;52.126;20.638;2023-05-23T00:59:50;57213.16;;;-144.78;44.86
55994;BME280;67425;52.126;20.638;2023-05-23T01:02:16;57219.38;;;-144.78;45.45
55994;BME280;67425;52.126;20.638;2023-05-23T01:04:42;57229.75;;;-144.78;46.01
55994;BME280;67425;52.126;20.638;2023-05-23T01:07:08;57240.13;;;-144.78;44.93
55994;BME280;67425;52.126;20.638;2023-05-23T01:09:34;57236.00;;;-144.78;46.12
55994;BME280;67425;52.126;20.638;2023-05-23T01:12:09;57215.22;;;-144.78;44.62
55994;BME280;67425;52.126;20.638;2023-05-23T01:14:59;57206.91;;;-144.78;44.27
55994;BME280;67425;52.126;20.638;2023-05-23T01:17:38;57221.44;;;-144.78;44.68
55994;BME280;67425;52.126;20.638;2023-05-23T01:20:08;57229.75;;;-144.78;45.18
55994;BME280;67425;52.126;20.638;2023-05-23T01:28:27;57204.84;;;-144.78;43.38
55994;BME280;67425;52.126;20.638;2023-05-23T01:30:56;57194.47;;;-144.78;43.55
55994;BME280;67425;52.126;20.638;2023-05-23T01:33:23;57209.00;;;-144.78;43.37
55994;BME280;67425;52.126;20.638;2023-05-23T01:35:49;57217.31;;;-144.78;43.67
55994;BME280;67425;52.126;20.638;2023-05-23T01:38:15;57209.00;;;-144.78;43.48
55994;BME280;67425;52.126;20.638;2023-05-23T01:40:40;57196.53;;;-144.78;43.15
55994;BME280;67425;52.126;20.638;2023-05-23T01:43:06;57196.53;;;-144.78;43.91
55994;BME280;67425;52.126;20.638;2023-05-23T01:45:32;57211.06;;;-144.78;43.91
55994;BME280;67425;52.126;20.638;2023-05-23T01:47:57;57215.22;;;-144.78;43.80
55994;BME280;67425;52.126;20.638;2023-05-23T01:50:23;57211.06;;;-144.78;43.62
55994;BME280;67425;52.126;20.638;2023-05-23T01:52:50;57211.06;;;-144.78;43.61
55994;BME280;67425;52.126;20.638;2023-05-23T01:55:18;57204.84;;;-144.78;43.81
55994;BME280;67425;52.126;20.638;2023-05-23T01:57:49;57219.38;;;-144.78;43.96
55994;BME280;67425;52.126;20.638;2023-05-23T02:00:16;57211.06;;;-144.78;43.85
55994;BME280;67425;52.126;20.638;2023-05-23T02:02:42;57206.91;;;-144.78;43.62
55994;BME280;67425;52.126;20.638;2023-05-23T02:05:08;57219.38;;;-144.78;43.29
55994;BME280;67425;52.126;20.638;2023-05-23T02:07:34;57219.38;;;-144.78;43.74
55994;BME280;67425;52.126;20.638;2023-05-23T02:10:00;57209.00;;;-144.78;43.73
55994;BME280;67425;52.126;20.638;2023-05-23T02:12:25;57217.31;;;-144.78;44.03
55994;BME280;67425;52.126;20.638;2023-05-23T02:14:52;57221.44;;;-144.78;43.79
55994;BME280;67425;52.126;20.638;2023-05-23T02:17:17;57223.53;;;-144.78;43.79
55994;BME280;67425;52.126;20.638;2023-05-23T02:19:43;57221.44;;;-144.78;43.96
55994;BME280;67425;52.126;20.638;2023-05-23T02:22:08;57229.75;;;-144.78;44.49
55994;BME280;67425;52.126;20.638;2023-05-23T02:24:34;57256.75;;;-144.78;46.13
55994;BME280;67425;52.126;20.638;2023-05-23T02:26:59;57252.59;;;-144.78;45.87
55994;BME280;67425;52.126;20.638;2023-05-23T02:29:24;57240.13;;;-144.78;45.09
55994;BME280;67425;52.126;20.638;2023-05-23T02:31:50;57260.91;;;-144.78;45.48
55994;BME280;67425;52.126;20.638;2023-05-23T02:34:15;57246.38;;;-144.78;44.65
55994;BME280;67425;52.126;20.638;2023-05-23T02:36:40;57242.22;;;-144.78;45.00
55994;BME280;67425;52.126;20.638;2023-05-23T02:39:06;57238.06;;;-144.78;44.12
55994;BME280;67425;52.126;20.638;2023-05-23T02:41:31;57219.38;;;-144.78;44.19
55994;BME280;67425;52.126;20.638;2023-05-23T02:43:57;57231.84;;;-144.78;44.24
55994;BME280;67425;52.126;20.638;2023-05-23T02:46:23;57244.28;;;-144.78;44.28
55994;BME280;67425;52.126;20.638;2023-05-23T02:48:48;57231.84;;;-144.78;44.70
55994;BME280;67425;52.126;20.638;2023-05-23T02:51:14;57223.53;;;-144.78;44.86
55994;BME280;67425;52.126;20.638;2023-05-23T02:53:39;57223.53;;;-144.78;44.81
55994;BME280;67425;52.126;20.638;2023-05-23T02:56:05;57217.31;;;-144.78;44.34
55994;BME280;67425;52.126;20.638;2023-05-23T02:58:33;57244.28;;;-144.78;44.74
55994;BME280;67425;52.126;20.638;2023-05-23T03:01:01;57242.22;;;-144.78;44.71
55994;BME280;67425;52.126;20.638;2023-05-23T03:03:26;57215.22;;;-144.78;44.51
55994;BME280;67425;52.126;20.638;2023-05-23T03:05:53;57240.13;;;-144.78;45.09
55994;BME280;67425;52.126;20.638;2023-05-23T03:08:19;57227.69;;;-144.78;44.95
55994;BME280;67425;52.126;20.638;2023-05-23T03:10:44;57242.22;;;-144.78;44.65
55994;BME280;67425;52.126;20.638;2023-05-23T03:13:09;57236.00;;;-144.78;44.62
55994;BME280;67425;52.126;20.638;2023-05-23T03:15:35;57250.53;;;-144.78;45.89
55994;BME280;67425;52.126;20.638;2023-05-23T03:18:00;57244.28;;;-144.78;46.33
55994;BME280;67425;52.126;20.638;2023-05-23T03:20:26;57244.28;;;-144.78;46.30
55994;BME280;67425;52.126;20.638;2023-05-23T03:22:51;57244.28;;;-144.78;46.10
55994;BME280;67425;52.126;20.638;2023-05-23T03:25:16;57217.31;;;-144.78;45.29
55994;BME280;67425;52.126;20.638;2023-05-23T03:27:42;57240.13;;;-144.78;45.26
55994;BME280;67425;52.126;20.638;2023-05-23T03:30:07;57221.44;;;-144.78;45.03
55994;BME280;67425;52.126;20.638;2023-05-23T03:32:33;57204.84;;;-144.78;44.45
55994;BME280;67425;52.126;20.638;2023-05-23T03:34:58;57215.22;;;-144.78;44.44
55994;BME280;67425;52.126;20.638;2023-05-23T03:37:24;57184.06;;;-144.78;44.24
55994;BME280;67425;52.126;20.638;2023-05-23T03:39:49;57215.22;;;-144.78;44.75
55994;BME280;67425;52.126;20.638;2023-05-23T03:42:14;57202.75;;;-144.78;44.43
55994;BME280;67425;52.126;20.638;2023-05-23T03:44:40;57213.16;;;-144.78;44.57
55994;BME280;67425;52.126;20.638;2023-05-23T03:47:05;57211.06;;;-144.78;43.99
55994;BME280;67425;52.126;20.638;2023-05-23T03:49:30;57198.59;;;-144.78;44.10
55994;BME280;67425;52.126;20.638;2023-05-23T03:51:56;57204.84;;;-144.78;44.92
55994;BME280;67425;52.126;20.638;2023-05-23T03:54:21;57192.38;;;-144.78;44.71
55994;BME280;67425;52.126;20.638;2023-05-23T03:56:47;57190.31;;;-144.78;44.19
55994;BME280;67425;52.126;20.638;2023-05-23T03:59:12;57188.22;;;-144.78;44.26
55994;BME280;67425;52.126;20.638;2023-05-23T04:01:37;57173.69;;;-144.78;45.03
55994;BME280;67425;52.126;20.638;2023-05-23T04:04:03;57194.47;;;-144.78;46.28
55994;BME280;67425;52.126;20.638;2023-05-23T04:06:29;57196.53;;;-144.78;45.08
55994;BME280;67425;52.126;20.638;2023-05-23T04:08:55;57175.75;;;-144.78;44.70
55994;BME280;67425;52.126;20.638;2023-05-23T04:11:21;57169.53;;;-144.78;44.80
55994;BME280;67425;52.126;20.638;2023-05-23T04:13:47;57163.31;;;-144.78;44.57
55994;BME280;67425;52.126;20.638;2023-05-23T04:16:12;57146.69;;;-144.78;44.37
55994;BME280;67425;52.126;20.638;2023-05-23T04:18:37;57161.22;;;-144.78;44.63
55994;BME280;67425;52.126;20.638;2023-05-23T04:21:03;57173.69;;;-144.78;44.93
55994;BME280;67425;52.126;20.638;2023-05-23T04:23:28;57165.38;;;-144.78;44.66
55994;BME280;67425;52.126;20.638;2023-05-23T04:25:54;57144.63;;;-144.78;44.21
55994;BME280;67425;52.126;20.638;2023-05-23T04:28:21;57136.31;;;-144.78;44.11
55994;BME280;67425;52.126;20.638;2023-05-23T04:30:47;57132.16;;;-144.78;43.98
55994;BME280;67425;52.126;20.638;2023-05-23T04:33:13;57117.63;;;-144.78;43.33
55994;BME280;67425;52.126;20.638;2023-05-23T04:35:39;57128.00;;;-144.78;42.77
55994;BME280;67425;52.126;20.638;2023-05-23T04:38:05;57111.41;;;-144.78;42.69
55994;BME280;67425;52.126;20.638;2023-05-23T04:40:30;57123.84;;;-144.78;42.90
55994;BME280;67425;52.126;20.638;2023-05-23T04:42:56;57123.84;;;-144.78;42.77
55994;BME280;67425;52.126;20.638;2023-05-23T04:45:22;57107.25;;;-144.78;43.04
55994;BME280;67425;52.126;20.638;2023-05-23T04:47:47;57092.69;;;-144.78;42.51
55994;BME280;67425;52.126;20.638;2023-05-23T04:50:13;57119.69;;;-144.78;42.30
55994;BME280;67425;52.126;20.638;2023-05-23T04:52:41;57107.25;;;-144.78;41.95
55994;BME280;67425;52.126;20.638;2023-05-23T04:55:07;57105.16;;;-144.78;42.34
55994;BME280;67425;52.126;20.638;2023-05-23T04:57:36;57084.41;;;-144.78;41.32
55994;BME280;67425;52.126;20.638;2023-05-23T05:00:02;57090.63;;;-144.78;41.27
55994;BME280;67425;52.126;20.638;2023-05-23T05:02:32;57082.31;;;-144.78;41.09
55994;BME280;67425;52.126;20.638;2023-05-23T05:04:59;57092.69;;;-144.78;40.36
55994;BME280;67425;52.126;20.638;2023-05-23T05:07:24;57074.00;;;-144.78;40.69
55994;BME280;67425;52.126;20.638;2023-05-23T05:09:50;57090.63;;;-144.78;40.39
55994;BME280;67425;52.126;20.638;2023-05-23T05:12:15;57061.56;;;-144.78;40.06
55994;BME280;67425;52.126;20.638;2023-05-23T05:14:40;57055.31;;;-144.78;38.90
55994;BME280;67425;52.126;20.638;2023-05-23T05:17:06;57051.16;;;-144.78;39.37
55994;BME280;67425;52.126;20.638;2023-05-23T05:19:32;57044.94;;;-144.78;38.64
55994;BME280;67425;52.126;20.638;2023-05-23T05:21:57;57074.00;;;-144.78;39.15
55994;BME280;67425;52.126;20.638;2023-05-23T05:24:24;57049.09;;;-144.78;39.43
55994;BME280;67425;52.126;20.638;2023-05-23T05:26:49;57053.25;;;-144.78;39.40
55994;BME280;67425;52.126;20.638;2023-05-23T05:29:14;57059.47;;;-144.78;40.04
55994;BME280;67425;52.126;20.638;2023-05-23T05:31:40;57074.00;;;-144.78;39.65
55994;BME280;67425;52.126;20.638;2023-05-23T05:34:07;57063.63;;;-144.78;39.43
55994;BME280;67425;52.126;20.638;2023-05-23T05:36:32;57061.56;;;-144.78;38.70
55994;BME280;67425;52.126;20.638;2023-05-23T05:38:58;57038.72;;;-144.78;38.43
55994;BME280;67425;52.126;20.638;2023-05-23T05:41:23;57040.78;;;-144.78;38.15
55994;BME280;67425;52.126;20.638;2023-05-23T05:43:48;57040.78;;;-144.78;39.00
55994;BME280;67425;52.126;20.638;2023-05-23T05:46:15;57036.63;;;-144.78;38.44
55994;BME280;67425;52.126;20.638;2023-05-23T05:48:40;57028.34;;;-144.78;36.78
55994;BME280;67425;52.126;20.638;2023-05-23T05:51:06;57015.88;;;-144.78;37.56
55994;BME280;67425;52.126;20.638;2023-05-23T05:53:31;57015.88;;;-144.78;36.86
55994;BME280;67425;52.126;20.638;2023-05-23T05:55:56;57022.09;;;-144.78;37.14
55994;BME280;67425;52.126;20.638;2023-05-23T05:58:22;56995.09;;;-144.78;36.37
55994;BME280;67425;52.126;20.638;2023-05-23T06:00:47;56993.03;;;-144.78;35.63
55994;BME280;67425;52.126;20.638;2023-05-23T06:03:13;56993.03;;;-144.78;35.40
55994;BME280;67425;52.126;20.638;2023-05-23T06:05:38;56986.81;;;-144.78;35.61
55994;BME280;67425;52.126;20.638;2023-05-23T06:08:03;56970.19;;;-144.78;35.96
55994;BME280;67425;52.126;20.638;2023-05-23T06:10:29;56997.19;;;-144.78;33.90
55994;BME280;67425;52.126;20.638;2023-05-23T06:12:55;56995.09;;;-144.78;33.74
55994;BME280;67425;52.126;20.638;2023-05-23T06:15:20;56976.41;;;-144.78;34.24
55994;BME280;67425;52.126;20.638;2023-05-23T06:17:45;56961.88;;;-144.78;34.49
55994;BME280;67425;52.126;20.638;2023-05-23T06:20:11;56968.13;;;-144.78;34.70
55994;BME280;67425;52.126;20.638;2023-05-23T06:22:36;56970.19;;;-144.78;34.15
55994;BME280;67425;52.126;20.638;2023-05-23T06:25:02;56963.97;;;-144.78;33.49
55994;BME280;67425;52.126;20.638;2023-05-23T06:27:27;56957.72;;;-144.78;34.26
55994;BME280;67425;52.126;20.638;2023-05-23T06:29:53;56955.66;;;-144.78;33.75
55994;BME280;67425;52.126;20.638;2023-05-23T06:32:18;56961.88;;;-144.78;34.12
55994;BME280;67425;52.126;20.638;2023-05-23T06:34:43;56939.03;;;-144.78;33.24
55994;BME280;67425;52.126;20.638;2023-05-23T06:37:09;56963.97;;;-144.78;33.24
55994;BME280;67425;52.126;20.638;2023-05-23T06:39:34;56949.44;;;-144.78;33.35
55994;BME280;67425;52.126;20.638;2023-05-23T06:41:59;56934.88;;;-144.78;32.93
55994;BME280;67425;52.126;20.638;2023-05-23T06:44:25;56936.97;;;-144.78;32.62
55994;BME280;67425;52.126;20.638;2023-05-23T06:46:51;56930.72;;;-144.78;32.91
55994;BME280;67425;52.126;20.638;2023-05-23T06:49:21;56936.97;;;-144.78;32.02
55994;BME280;67425;52.126;20.638;2023-05-23T06:51:47;56926.59;;;-144.78;32.88
55994;BME280;67425;52.126;20.638;2023-05-23T06:54:12;56914.13;;;-144.78;33.37
55994;BME280;67425;52.126;20.638;2023-05-23T06:56:37;56920.34;;;-144.78;31.41
55994;BME280;67425;52.126;20.638;2023-05-23T06:59:03;56943.19;;;-144.78;32.08
55994;BME280;67425;52.126;20.638;2023-05-23T07:01:28;56941.13;;;-144.78;32.62
55994;BME280;67425;52.126;20.638;2023-05-23T07:03:53;56932.81;;;-144.78;32.07
55994;BME280;67425;52.126;20.638;2023-05-23T07:06:19;56924.50;;;-144.78;31.77
55994;BME280;67425;52.126;20.638;2023-05-23T07:08:44;56926.59;;;-144.78;31.47
55994;BME280;67425;52.126;20.638;2023-05-23T07:11:10;56916.19;;;-144.78;31.71
55994;BME280;67425;52.126;20.638;2023-05-23T07:13:36;56926.59;;;-144.78;31.21
55994;BME280;67425;52.126;20.638;2023-05-23T07:16:01;56926.59;;;-144.78;31.07
55994;BME280;67425;52.126;20.638;2023-05-23T07:18:27;56916.19;;;-144.78;29.94
55994;BME280;67425;52.126;20.638;2023-05-23T07:20:52;56922.44;;;-144.78;30.04
55994;BME280;67425;52.126;20.638;2023-05-23T07:23:17;56909.97;;;-144.78;30.56
55994;BME280;67425;52.126;20.638;2023-05-23T07:25:43;56924.50;;;-144.78;30.12
55994;BME280;67425;52.126;20.638;2023-05-23T07:28:08;56912.03;;;-144.78;29.95
55994;BME280;67425;52.126;20.638;2023-05-23T07:30:34;56901.66;;;-144.78;30.18
55994;BME280;67425;52.126;20.638;2023-05-23T07:33:00;56903.75;;;-144.78;30.39
55994;BME280;67425;52.126;20.638;2023-05-23T07:35:25;56901.66;;;-144.78;31.07
55994;BME280;67425;52.126;20.638;2023-05-23T07:37:54;56899.59;;;-144.78;29.77
55994;BME280;67425;52.126;20.638;2023-05-23T07:40:21;56903.75;;;-144.78;30.24
55994;BME280;67425;52.126;20.638;2023-05-23T07:42:46;56901.66;;;-144.78;30.08
55994;BME280;67425;52.126;20.638;2023-05-23T07:45:12;56924.50;;;-144.78;31.53
55994;BME280;67425;52.126;20.638;2023-05-23T07:47:37;56936.97;;;-144.78;30.38
55994;BME280;67425;52.126;20.638;2023-05-23T07:50:03;56922.44;;;-144.78;31.12
55994;BME280;67425;52.126;20.638;2023-05-23T07:52:29;56918.28;;;-144.78;29.56
55994;BME280;67425;52.126;20.638;2023-05-23T07:54:56;56909.97;;;-144.78;30.36
55994;BME280;67425;52.126;20.638;2023-05-23T07:57:21;56905.81;;;-144.78;30.67
55994;BME280;67425;52.126;20.638;2023-05-23T07:59:49;56903.75;;;-144.78;30.50
55994;BME280;67425;52.126;20.638;2023-05-23T08:02:15;56907.91;;;-144.78;29.39
55994;BME280;67425;52.126;20.638;2023-05-23T08:04:40;56899.59;;;-144.78;29.78
55994;BME280;67425;52.126;20.638;2023-05-23T08:07:05;56903.75;;;-144.78;28.20
55994;BME280;67425;52.126;20.638;2023-05-23T08:09:32;56907.91;;;-144.78;29.44
55994;BME280;67425;52.126;20.638;2023-05-23T08:11:57;56889.22;;;-144.78;30.16
55994;BME280;67425;52.126;20.638;2023-05-23T08:14:23;56905.81;;;-144.78;29.73
55994;BME280;67425;52.126;20.638;2023-05-23T08:16:48;56912.03;;;-144.78;30.07
55994;BME280;67425;52.126;20.638;2023-05-23T08:19:13;56914.13;;;-144.78;28.92
55994;BME280;67425;52.126;20.638;2023-05-23T08:21:39;56899.59;;;-144.78;28.61
55994;BME280;67425;52.126;20.638;2023-05-23T08:24:04;56899.59;;;-144.78;29.77
55994;BME280;67425;52.126;20.638;2023-05-23T08:26:30;56893.34;;;-144.78;30.37
55994;BME280;67425;52.126;20.638;2023-05-23T08:28:59;56899.59;;;-144.78;27.91
55994;BME280;67425;52.126;20.638;2023-05-23T08:31:29;56895.44;;;-144.78;28.46
55994;BME280;67425;52.126;20.638;2023-05-23T08:33:55;56901.66;;;-144.78;29.16
55994;BME280;67425;52.126;20.638;2023-05-23T08:36:21;56918.28;;;-144.78;29.20
55994;BME280;67425;52.126;20.638;2023-05-23T08:38:46;56909.97;;;-144.78;29.91
55994;BME280;67425;52.126;20.638;2023-05-23T08:41:17;56903.75;;;-144.78;28.65
55994;BME280;67425;52.126;20.638;2023-05-23T08:43:43;56903.75;;;-144.78;28.19
55994;BME280;67425;52.126;20.638;2023-05-23T08:46:08;56889.22;;;-144.78;27.72
55994;BME280;67425;52.126;20.638;2023-05-23T08:48:37;56895.44;;;-144.78;28.97
55994;BME280;67425;52.126;20.638;2023-05-23T08:51:03;56895.44;;;-144.78;28.29
55994;BME280;67425;52.126;20.638;2023-05-23T08:53:32;56878.81;;;-144.78;27.78
55994;BME280;67425;52.126;20.638;2023-05-23T08:56:02;56885.06;;;-144.78;26.29
55994;BME280;67425;52.126;20.638;2023-05-23T08:58:30;56874.66;;;-144.78;28.53
55994;BME280;67425;52.126;20.638;2023-05-23T09:00:58;56887.13;;;-144.78;26.54
55994;BME280;67425;52.126;20.638;2023-05-23T09:03:27;56870.53;;;-144.78;27.43
55994;BME280;67425;52.126;20.638;2023-05-23T09:05:53;56878.81;;;-144.78;27.06
55994;BME280;67425;52.126;20.638;2023-05-23T09:08:19;56876.75;;;-144.78;27.38
55994;BME280;67425;52.126;20.638;2023-05-23T09:10:47;56858.06;;;-144.78;27.14
55994;BME280;67425;52.126;20.638;2023-05-23T09:13:13;56893.34;;;-144.78;27.38
55994;BME280;67425;52.126;20.638;2023-05-23T09:15:55;56887.13;;;-144.78;26.54
55994;BME280;67425;52.126;20.638;2023-05-23T09:18:24;56891.28;;;-144.78;27.86
55994;BME280;67425;52.126;20.638;2023-05-23T09:20:49;56887.13;;;-144.78;26.70
55994;BME280;67425;52.126;20.638;2023-05-23T09:23:15;56897.50;;;-144.78;27.14
55994;BME280;67425;52.126;20.638;2023-05-23T09:25:47;56862.22;;;-144.78;25.87
55994;BME280;67425;52.126;20.638;2023-05-23T09:28:12;56887.13;;;-144.78;26.16
55994;BME280;67425;52.126;20.638;2023-05-23T09:30:38;56870.53;;;-144.78;25.75
55994;BME280;67425;52.126;20.638;2023-05-23T09:33:03;56874.66;;;-144.78;26.74
55994;BME280;67425;52.126;20.638;2023-05-23T09:35:29;56895.44;;;-144.78;26.98
55994;BME280;67425;52.126;20.638;2023-05-23T09:37:56;56903.75;;;-144.78;28.26
55994;BME280;67425;52.126;20.638;2023-05-23T09:40:28;56887.13;;;-144.78;27.18
55994;BME280;67425;52.126;20.638;2023-05-23T09:43:01;56880.91;;;-144.78;26.22
55994;BME280;67425;52.126;20.638;2023-05-23T09:45:31;56878.81;;;-144.78;27.90
55994;BME280;67425;52.126;20.638;2023-05-23T09:47:56;56855.97;;;-144.78;26.99
55994;BME280;67425;52.126;20.638;2023-05-23T09:50:22;56876.75;;;-144.78;25.85
55994;BME280;67425;52.126;20.638;2023-05-23T09:52:48;56868.44;;;-144.78;26.29
55994;BME280;67425;52.126;20.638;2023-05-23T09:55:15;56866.38;;;-144.78;27.07
55994;BME280;67425;52.126;20.638;2023-05-23T09:57:42;56870.53;;;-144.78;28.13
55994;BME280;67425;52.126;20.638;2023-05-23T10:00:09;56866.38;;;-144.78;27.34
55994;BME280;67425;52.126;20.638;2023-05-23T10:02:53;56847.69;;;-144.78;27.45
55994;BME280;67425;52.126;20.638;2023-05-23T10:05:44;56855.97;;;-144.78;27.05
55994;BME280;67425;52.126;20.638;2023-05-23T10:08:18;56862.22;;;-144.78;26.67
55994;BME280;67425;52.126;20.638;2023-05-23T10:13:24;56860.13;;;-144.78;26.43
55994;BME280;67425;52.126;20.638;2023-05-23T10:15:54;56882.97;;;-144.78;26.48
55994;BME280;67425;52.126;20.638;2023-05-23T10:18:25;56895.44;;;-144.78;26.67
55994;BME280;67425;52.126;20.638;2023-05-23T10:20:55;56870.53;;;-144.78;26.49
55994;BME280;67425;52.126;20.638;2023-05-23T10:23:22;56880.91;;;-144.78;27.34
55994;BME280;67425;52.126;20.638;2023-05-23T10:25:48;56872.59;;;-144.78;26.63
55994;BME280;67425;52.126;20.638;2023-05-23T10:28:14;56887.13;;;-144.78;25.97
55994;BME280;67425;52.126;20.638;2023-05-23T10:30:39;56868.44;;;-144.78;26.90
55994;BME280;67425;52.126;20.638;2023-05-23T10:33:05;56864.28;;;-144.78;26.66
55994;BME280;67425;52.126;20.638;2023-05-23T10:36:03;56874.66;;;-144.78;26.49
55994;BME280;67425;52.126;20.638;2023-05-23T10:38:54;56870.53;;;-144.78;27.30
55994;BME280;67425;52.126;20.638;2023-05-23T10:41:27;56870.53;;;-144.78;28.11
55994;BME280;67425;52.126;20.638;2023-05-23T10:44:08;56858.06;;;-144.78;27.08
55994;BME280;67425;52.126;20.638;2023-05-23T10:46:50;56849.75;;;-144.78;26.22
55994;BME280;67425;52.126;20.638;2023-05-23T10:49:42;56855.97;;;-144.78;26.50
55994;BME280;67425;52.126;20.638;2023-05-23T10:52:10;56858.06;;;-144.78;26.00
55994;BME280;67425;52.126;20.638;2023-05-23T10:54:41;56845.59;;;-144.78;26.23
55994;BME280;67425;52.126;20.638;2023-05-23T10:57:09;56833.16;;;-144.78;25.25
55994;BME280;67425;52.126;20.638;2023-05-23T10:59:37;56851.84;;;-144.78;25.48
55994;BME280;67425;52.126;20.638;2023-05-23T11:02:03;56862.22;;;-144.78;25.31
55994;BME280;67425;52.126;20.638;2023-05-23T11:04:34;56862.22;;;-144.78;25.63
55994;BME280;67425;52.126;20.638;2023-05-23T11:07:00;56862.22;;;-144.78;26.91
55994;BME280;67425;52.126;20.638;2023-05-23T11:09:25;56860.13;;;-144.78;25.78
55994;BME280;67425;52.126;20.638;2023-05-23T11:12:03;56874.66;;;-144.78;25.79
55994;BME280;67425;52.126;20.638;2023-05-23T11:17:14;56882.97;;;-144.78;27.08
55994;BME280;67425;52.126;20.638;2023-05-23T11:20:07;56882.97;;;-144.78;26.86
55994;BME280;67425;52.126;20.638;2023-05-23T11:22:34;56887.13;;;-144.78;26.49
55994;BME280;67425;52.126;20.638;2023-05-23T11:25:05;56855.97;;;-144.78;26.31
55994;BME280;67425;52.126;20.638;2023-05-23T11:27:33;56866.38;;;-144.78;26.27
55994;BME280;67425;52.126;20.638;2023-05-23T11:32:27;56880.91;;;-144.78;26.61
55994;BME280;67425;52.126;20.638;2023-05-23T11:34:54;56847.69;;;-144.78;26.41
55994;BME280;67425;52.126;20.638;2023-05-23T11:37:19;56831.06;;;-144.78;26.07
55994;BME280;67425;52.126;20.638;2023-05-23T11:39:45;56845.59;;;-144.78;26.86
55994;BME280;67425;52.126;20.638;2023-05-23T11:42:10;56847.69;;;-144.78;24.92
55994;BME280;67425;52.126;20.638;2023-05-23T11:44:36;56866.38;;;-144.78;25.14
55994;BME280;67425;52.126;20.638;2023-05-23T11:47:03;56829.00;;;-144.78;26.47
55994;BME280;67425;52.126;20.638;2023-05-23T11:49:29;56864.28;;;-144.78;26.30
55994;BME280;67425;52.126;20.638;2023-05-23T11:51:55;56853.91;;;-144.78;25.49
55994;BME280;67425;52.126;20.638;2023-05-23T11:54:24;56839.38;;;-144.78;25.87
55994;BME280;67425;52.126;20.638;2023-05-23T11:56:51;56872.59;;;-144.78;25.24
55994;BME280;67425;52.126;20.638;2023-05-23T11:59:16;56866.38;;;-144.78;26.06
55994;BME280;67425;52.126;20.638;2023-05-23T12:01:42;56874.66;;;-144.78;26.60
55994;BME280;67425;52.126;20.638;2023-05-23T12:04:08;56874.66;;;-144.78;26.96
55994;BME280;67425;52.126;20.638;2023-05-23T12:06:37;56870.53;;;-144.78;25.20
55994;BME280;67425;52.126;20.638;2023-05-23T12:09:03;56864.28;;;-144.78;25.15
55994;BME280;67425;52.126;20.638;2023-05-23T12:11:30;56887.13;;;-144.78;25.95
55994;BME280;67425;52.126;20.638;2023-05-23T12:13:56;56874.66;;;-144.78;26.02
55994;BME280;67425;52.126;20.638;2023-05-23T12:16:22;56864.28;;;-144.78;25.38
55994;BME280;67425;52.126;20.638;2023-05-23T12:18:47;56858.06;;;-144.78;26.25
55994;BME280;67425;52.126;20.638;2023-05-23T12:21:12;56847.69;;;-144.78;25.19
55994;BME280;67425;52.126;20.638;2023-05-23T12:23:38;56853.91;;;-144.78;26.01
55994;BME280;67425;52.126;20.638;2023-05-23T12:26:04;56851.84;;;-144.78;25.37
55994;BME280;67425;52.126;20.638;2023-05-23T12:28:41;56845.59;;;-144.78;26.10
55994;BME280;67425;52.126;20.638;2023-05-23T12:33:41;56853.91;;;-144.78;25.87
55994;BME280;67425;52.126;20.638;2023-05-23T12:36:12;56851.84;;;-144.78;25.69
55994;BME280;67425;52.126;20.638;2023-05-23T12:38:38;56853.91;;;-144.78;26.15
55994;BME280;67425;52.126;20.638;2023-05-23T12:41:15;56864.28;;;-144.78;26.76
55994;BME280;67425;52.126;20.638;2023-05-23T12:43:51;56845.59;;;-144.78;25.79
55994;BME280;67425;52.126;20.638;2023-05-23T12:46:21;56829.00;;;-144.78;25.07